sensor_id;sensor_type;location;lat;lon;timestamp;temperature;humidity
11505;DHT22;5809;53.262;10.408;2022-10-22T00:00:05;12.30;99.90
11505;DHT22;5809;53.262;10.408;2022-10-22T00:02:32;13.50;99.90
11505;DHT22;5809;53.262;10.408;2022-10-22T00:05:00;13.40;99.90
11505;DHT22;5809;53.262;10.408;2022-10-22T00:07:27;13.50;99.90
11505;DHT22;5809;53.262;10.408;2022-10-22T00:12:22;13.50;99.90
11505;DHT22;5809;53.262;10.408;2022-10-22T00:14:48;13.50;99.90
11505;DHT22;5809;53.262;10.408;2022-10-22T00:17:15;13.50;99.90
11505;DHT22;5809;53.262;10.408;2022-10-22T00:22:11;13.50;99.90
11505;DHT22;5809;53.262;10.408;2022-10-22T00:24:38;13.60;99.90
11505;DHT22;5809;53.262;10.408;2022-10-22T00:27:08;13.50;99.90
11505;DHT22;5809;53.262;10.408;2022-10-22T00:29:35;13.50;99.90
11505;DHT22;5809;53.262;10.408;2022-10-22T00:32:03;13.50;99.90
11505;DHT22;5809;53.262;10.408;2022-10-22T00:34:30;13.50;99.90
11505;DHT22;5809;53.262;10.408;2022-10-22T00:39:26;13.50;99.90
11505;DHT22;5809;53.262;10.408;2022-10-22T00:41:55;13.50;99.90
11505;DHT22;5809;53.262;10.408;2022-10-22T00:45:00;13.60;99.90
11505;DHT22;5809;53.262;10.408;2022-10-22T00:47:31;13.60;99.90
11505;DHT22;5809;53.262;10.408;2022-10-22T00:49:59;13.60;99.90
11505;DHT22;5809;53.262;10.408;2022-10-22T00:52:27;13.60;99.90
11505;DHT22;5809;53.262;10.408;2022-10-22T00:54:56;13.60;99.90
11505;DHT22;5809;53.262;10.408;2022-10-22T00:57:23;13.60;99.90
11505;DHT22;5809;53.262;10.408;2022-10-22T00:59:50;13.60;99.90
11505;DHT22;5809;53.262;10.408;2022-10-22T01:04:44;13.60;99.90
11505;DHT22;5809;53.262;10.408;2022-10-22T01:07:15;13.60;99.90
11505;DHT22;5809;53.262;10.408;2022-10-22T01:09:47;13.60;99.90
11505;DHT22;5809;53.262;10.408;2022-10-22T01:12:20;13.60;99.90
11505;DHT22;5809;53.262;10.408;2022-10-22T01:15:06;13.60;99.90
11505;DHT22;5809;53.262;10.408;2022-10-22T01:17:41;13.60;99.90
11505;DHT22;5809;53.262;10.408;2022-10-22T01:20:23;13.60;99.90
11505;DHT22;5809;53.262;10.408;2022-10-22T01:23:05;13.60;99.90
11505;DHT22;5809;53.262;10.408;2022-10-22T01:25:45;13.60;99.90
11505;DHT22;5809;53.262;10.408;2022-10-22T01:28:18;13.60;99.90
11505;DHT22;5809;53.262;10.408;2022-10-22T01:30:50;13.60;99.90
11505;DHT22;5809;53.262;10.408;2022-10-22T01:33:20;13.60;99.90
11505;DHT22;5809;53.262;10.408;2022-10-22T01:35:48;13.60;99.90
11505;DHT22;5809;53.262;10.408;2022-10-22T01:38:19;13.60;99.90
11505;DHT22;5809;53.262;10.408;2022-10-22T01:40:47;13.60;99.90
11505;DHT22;5809;53.262;10.408;2022-10-22T01:45:45;13.50;99.90
11505;DHT22;5809;53.262;10.408;2022-10-22T01:48:25;13.50;99.90
11505;DHT22;5809;53.262;10.408;2022-10-22T01:51:06;13.50;99.90
11505;DHT22;5809;53.262;10.408;2022-10-22T01:53:44;13.40;99.90
11505;DHT22;5809;53.262;10.408;2022-10-22T01:56:24;13.40;99.90
11505;DHT22;5809;53.262;10.408;2022-10-22T01:59:01;13.40;99.90
11505;DHT22;5809;53.262;10.408;2022-10-22T02:01:35;13.30;99.90
11505;DHT22;5809;53.262;10.408;2022-10-22T02:04:12;13.30;99.90
11505;DHT22;5809;53.262;10.408;2022-10-22T02:06:42;13.30;99.90
11505;DHT22;5809;53.262;10.408;2022-10-22T02:09:13;13.30;99.90
11505;DHT22;5809;53.262;10.408;2022-10-22T02:11:42;13.20;99.90
11505;DHT22;5809;53.262;10.408;2022-10-22T02:14:10;13.20;99.90
11505;DHT22;5809;53.262;10.408;2022-10-22T02:16:41;13.20;99.90
11505;DHT22;5809;53.262;10.408;2022-10-22T02:19:14;13.20;99.90
11505;DHT22;5809;53.262;10.408;2022-10-22T02:21:41;13.20;99.90
11505;DHT22;5809;53.262;10.408;2022-10-22T02:26:39;13.10;99.90
11505;DHT22;5809;53.262;10.408;2022-10-22T02:29:13;9.60;99.90
11505;DHT22;5809;53.262;10.408;2022-10-22T02:31:42;13.10;99.90
11505;DHT22;5809;53.262;10.408;2022-10-22T02:34:16;13.10;99.90
11505;DHT22;5809;53.262;10.408;2022-10-22T02:36:44;13.00;99.90
11505;DHT22;5809;53.262;10.408;2022-10-22T02:39:12;13.00;99.90
11505;DHT22;5809;53.262;10.408;2022-10-22T02:44:09;13.00;99.90
11505;DHT22;5809;53.262;10.408;2022-10-22T02:46:36;13.00;99.90
11505;DHT22;5809;53.262;10.408;2022-10-22T02:49:04;12.90;99.90
11505;DHT22;5809;53.262;10.408;2022-10-22T02:51:32;12.80;99.90
11505;DHT22;5809;53.262;10.408;2022-10-22T02:53:59;12.90;99.90
11505;DHT22;5809;53.262;10.408;2022-10-22T03:06:15;12.60;99.90
11505;DHT22;5809;53.262;10.408;2022-10-22T03:08:43;12.70;99.90
11505;DHT22;5809;53.262;10.408;2022-10-22T03:11:10;12.70;99.90
11505;DHT22;5809;53.262;10.408;2022-10-22T03:13:37;12.70;99.90
11505;DHT22;5809;53.262;10.408;2022-10-22T03:16:04;12.70;99.90
11505;DHT22;5809;53.262;10.408;2022-10-22T03:18:31;12.70;99.90
11505;DHT22;5809;53.262;10.408;2022-10-22T03:21:03;12.60;99.90
11505;DHT22;5809;53.262;10.408;2022-10-22T03:23:32;12.60;99.90
11505;DHT22;5809;53.262;10.408;2022-10-22T03:26:00;12.60;99.90
11505;DHT22;5809;53.262;10.408;2022-10-22T03:28:27;12.60;99.90
11505;DHT22;5809;53.262;10.408;2022-10-22T03:30:54;12.50;99.90
11505;DHT22;5809;53.262;10.408;2022-10-22T03:33:21;12.60;99.90
11505;DHT22;5809;53.262;10.408;2022-10-22T03:38:15;12.50;99.90
11505;DHT22;5809;53.262;10.408;2022-10-22T03:43:11;12.50;99.90
11505;DHT22;5809;53.262;10.408;2022-10-22T03:48:05;12.40;99.90
11505;DHT22;5809;53.262;10.408;2022-10-22T03:50:32;12.40;99.90
11505;DHT22;5809;53.262;10.408;2022-10-22T03:52:59;12.40;99.90
11505;DHT22;5809;53.262;10.408;2022-10-22T03:55:26;12.40;99.90
11505;DHT22;5809;53.262;10.408;2022-10-22T03:57:53;12.30;99.90
11505;DHT22;5809;53.262;10.408;2022-10-22T04:00:21;12.30;99.90
11505;DHT22;5809;53.262;10.408;2022-10-22T04:02:48;12.30;99.90
11505;DHT22;5809;53.262;10.408;2022-10-22T04:07:42;12.40;99.90
11505;DHT22;5809;53.262;10.408;2022-10-22T04:12:36;12.40;99.90
11505;DHT22;5809;53.262;10.408;2022-10-22T04:17:34;12.40;99.90
11505;DHT22;5809;53.262;10.408;2022-10-22T04:22:28;12.20;99.90
11505;DHT22;5809;53.262;10.408;2022-10-22T04:29:49;12.30;99.90
11505;DHT22;5809;53.262;10.408;2022-10-22T04:34:44;12.20;99.90
11505;DHT22;5809;53.262;10.408;2022-10-22T04:37:13;12.20;99.90
11505;DHT22;5809;53.262;10.408;2022-10-22T04:39:40;12.20;99.90
11505;DHT22;5809;53.262;10.408;2022-10-22T04:42:07;12.20;99.90
11505;DHT22;5809;53.262;10.408;2022-10-22T04:44:34;12.10;99.90
11505;DHT22;5809;53.262;10.408;2022-10-22T04:47:01;12.10;99.90
11505;DHT22;5809;53.262;10.408;2022-10-22T04:49:28;12.00;99.90
11505;DHT22;5809;53.262;10.408;2022-10-22T04:51:56;12.00;99.90
11505;DHT22;5809;53.262;10.408;2022-10-22T04:54:23;12.00;99.90
11505;DHT22;5809;53.262;10.408;2022-10-22T04:56:49;11.90;99.90
11505;DHT22;5809;53.262;10.408;2022-10-22T05:01:44;11.90;99.90
11505;DHT22;5809;53.262;10.408;2022-10-22T05:04:12;12.00;99.90
11505;DHT22;5809;53.262;10.408;2022-10-22T05:06:39;12.00;99.90
11505;DHT22;5809;53.262;10.408;2022-10-22T05:09:13;12.00;99.90
11505;DHT22;5809;53.262;10.408;2022-10-22T05:11:41;12.00;99.90
11505;DHT22;5809;53.262;10.408;2022-10-22T05:14:10;12.00;99.90
11505;DHT22;5809;53.262;10.408;2022-10-22T05:16:38;11.90;99.90
11505;DHT22;5809;53.262;10.408;2022-10-22T05:19:05;11.90;99.90
11505;DHT22;5809;53.262;10.408;2022-10-22T05:21:33;11.90;99.90
11505;DHT22;5809;53.262;10.408;2022-10-22T05:24:01;11.90;99.90
11505;DHT22;5809;53.262;10.408;2022-10-22T05:26:30;11.90;99.90
11505;DHT22;5809;53.262;10.408;2022-10-22T05:28:57;11.90;99.90
11505;DHT22;5809;53.262;10.408;2022-10-22T05:31:24;11.80;99.90
11505;DHT22;5809;53.262;10.408;2022-10-22T05:33:53;11.80;99.90
11505;DHT22;5809;53.262;10.408;2022-10-22T05:36:21;11.90;99.90
11505;DHT22;5809;53.262;10.408;2022-10-22T05:41:17;11.80;99.90
11505;DHT22;5809;53.262;10.408;2022-10-22T05:43:46;11.80;99.90
11505;DHT22;5809;53.262;10.408;2022-10-22T05:46:15;11.80;99.90
11505;DHT22;5809;53.262;10.408;2022-10-22T05:51:12;11.70;99.90
11505;DHT22;5809;53.262;10.408;2022-10-22T05:53:41;11.80;99.90
11505;DHT22;5809;53.262;10.408;2022-10-22T05:56:10;11.70;99.90
11505;DHT22;5809;53.262;10.408;2022-10-22T05:58:38;11.70;99.90
11505;DHT22;5809;53.262;10.408;2022-10-22T06:01:09;11.60;99.90
11505;DHT22;5809;53.262;10.408;2022-10-22T06:06:11;11.70;99.90
11505;DHT22;5809;53.262;10.408;2022-10-22T06:08:40;11.60;99.90
11505;DHT22;5809;53.262;10.408;2022-10-22T06:13:34;11.70;99.90
11505;DHT22;5809;53.262;10.408;2022-10-22T06:18:29;11.80;99.90
11505;DHT22;5809;53.262;10.408;2022-10-22T06:21:03;11.80;99.90
11505;DHT22;5809;53.262;10.408;2022-10-22T06:23:30;11.80;99.90
11505;DHT22;5809;53.262;10.408;2022-10-22T06:28:24;11.80;99.90
11505;DHT22;5809;53.262;10.408;2022-10-22T06:35:47;11.80;99.90
11505;DHT22;5809;53.262;10.408;2022-10-22T06:38:14;11.80;99.90
11505;DHT22;5809;53.262;10.408;2022-10-22T06:43:09;11.80;99.90
11505;DHT22;5809;53.262;10.408;2022-10-22T06:48:04;11.80;99.90
11505;DHT22;5809;53.262;10.408;2022-10-22T06:50:32;11.80;99.90
11505;DHT22;5809;53.262;10.408;2022-10-22T06:53:00;11.80;99.90
11505;DHT22;5809;53.262;10.408;2022-10-22T06:55:27;11.80;99.90
11505;DHT22;5809;53.262;10.408;2022-10-22T06:57:54;11.80;99.90
11505;DHT22;5809;53.262;10.408;2022-10-22T07:02:52;11.70;99.90
11505;DHT22;5809;53.262;10.408;2022-10-22T07:10:15;11.80;99.90
11505;DHT22;5809;53.262;10.408;2022-10-22T07:12:42;11.80;99.90
11505;DHT22;5809;53.262;10.408;2022-10-22T07:15:09;11.80;99.90
11505;DHT22;5809;53.262;10.408;2022-10-22T07:20:04;11.80;99.90
11505;DHT22;5809;53.262;10.408;2022-10-22T07:24:58;11.90;99.90
11505;DHT22;5809;53.262;10.408;2022-10-22T07:27:26;11.90;99.90
11505;DHT22;5809;53.262;10.408;2022-10-22T07:34:48;12.10;99.90
11505;DHT22;5809;53.262;10.408;2022-10-22T07:42:11;12.80;99.90
11505;DHT22;5809;53.262;10.408;2022-10-22T07:44:39;13.20;99.90
11505;DHT22;5809;53.262;10.408;2022-10-22T07:47:06;13.70;99.90
11505;DHT22;5809;53.262;10.408;2022-10-22T07:49:33;14.30;99.90
11505;DHT22;5809;53.262;10.408;2022-10-22T07:51:59;14.90;99.90
11505;DHT22;5809;53.262;10.408;2022-10-22T07:54:26;15.20;99.90
11505;DHT22;5809;53.262;10.408;2022-10-22T07:56:53;15.70;99.90
11505;DHT22;5809;53.262;10.408;2022-10-22T07:59:20;15.60;99.90
11505;DHT22;5809;53.262;10.408;2022-10-22T08:01:48;16.00;99.90
11505;DHT22;5809;53.262;10.408;2022-10-22T08:04:15;16.30;99.90
11505;DHT22;5809;53.262;10.408;2022-10-22T08:06:42;16.60;99.90
11505;DHT22;5809;53.262;10.408;2022-10-22T08:09:09;17.10;99.90
11505;DHT22;5809;53.262;10.408;2022-10-22T08:11:36;17.50;99.90
11505;DHT22;5809;53.262;10.408;2022-10-22T08:14:03;17.90;99.90
11505;DHT22;5809;53.262;10.408;2022-10-22T08:16:30;18.20;99.90
11505;DHT22;5809;53.262;10.408;2022-10-22T08:18:58;18.60;99.90
11505;DHT22;5809;53.262;10.408;2022-10-22T08:21:25;18.90;99.90
11505;DHT22;5809;53.262;10.408;2022-10-22T08:23:52;19.20;99.90
11505;DHT22;5809;53.262;10.408;2022-10-22T08:26:19;19.40;99.90
11505;DHT22;5809;53.262;10.408;2022-10-22T08:28:46;19.80;99.90
11505;DHT22;5809;53.262;10.408;2022-10-22T08:31:13;20.10;99.90
11505;DHT22;5809;53.262;10.408;2022-10-22T08:33:40;20.70;99.90
11505;DHT22;5809;53.262;10.408;2022-10-22T08:36:08;20.90;99.90
11505;DHT22;5809;53.262;10.408;2022-10-22T08:38:36;20.90;99.90
11505;DHT22;5809;53.262;10.408;2022-10-22T08:41:08;21.00;99.90
11505;DHT22;5809;53.262;10.408;2022-10-22T08:43:45;21.10;99.90
11505;DHT22;5809;53.262;10.408;2022-10-22T08:46:25;21.40;99.90
11505;DHT22;5809;53.262;10.408;2022-10-22T08:48:55;21.40;99.90
11505;DHT22;5809;53.262;10.408;2022-10-22T08:51:26;21.60;99.90
11505;DHT22;5809;53.262;10.408;2022-10-22T08:54:20;21.90;99.90
11505;DHT22;5809;53.262;10.408;2022-10-22T08:57:01;22.10;99.90
11505;DHT22;5809;53.262;10.408;2022-10-22T08:59:34;22.30;99.90
11505;DHT22;5809;53.262;10.408;2022-10-22T09:02:17;22.20;99.90
11505;DHT22;5809;53.262;10.408;2022-10-22T09:04:49;22.20;99.90
11505;DHT22;5809;53.262;10.408;2022-10-22T09:07:23;22.00;99.90
11505;DHT22;5809;53.262;10.408;2022-10-22T09:09:51;21.40;99.90
11505;DHT22;5809;53.262;10.408;2022-10-22T09:12:21;21.50;99.90
11505;DHT22;5809;53.262;10.408;2022-10-22T09:14:50;22.00;99.90
11505;DHT22;5809;53.262;10.408;2022-10-22T09:17:23;22.60;99.90
11505;DHT22;5809;53.262;10.408;2022-10-22T09:19:58;23.30;99.90
11505;DHT22;5809;53.262;10.408;2022-10-22T09:22:33;23.20;99.90
11505;DHT22;5809;53.262;10.408;2022-10-22T09:25:18;23.00;99.90
11505;DHT22;5809;53.262;10.408;2022-10-22T09:27:45;23.60;99.90
11505;DHT22;5809;53.262;10.408;2022-10-22T09:30:15;23.80;99.90
11505;DHT22;5809;53.262;10.408;2022-10-22T09:32:42;23.80;99.90
11505;DHT22;5809;53.262;10.408;2022-10-22T09:35:10;23.90;99.90
11505;DHT22;5809;53.262;10.408;2022-10-22T09:37:46;24.00;99.90
11505;DHT22;5809;53.262;10.408;2022-10-22T09:40:14;24.10;99.90
11505;DHT22;5809;53.262;10.408;2022-10-22T09:42:41;24.30;99.90
11505;DHT22;5809;53.262;10.408;2022-10-22T09:45:16;24.40;99.90
11505;DHT22;5809;53.262;10.408;2022-10-22T09:47:44;24.10;99.90
11505;DHT22;5809;53.262;10.408;2022-10-22T09:50:19;23.60;99.90
11505;DHT22;5809;53.262;10.408;2022-10-22T09:52:57;22.70;99.90
11505;DHT22;5809;53.262;10.408;2022-10-22T09:55:25;22.00;99.90
11505;DHT22;5809;53.262;10.408;2022-10-22T09:57:53;21.90;99.90
11505;DHT22;5809;53.262;10.408;2022-10-22T10:00:21;20.70;99.90
11505;DHT22;5809;53.262;10.408;2022-10-22T10:02:53;20.30;99.90
11505;DHT22;5809;53.262;10.408;2022-10-22T10:05:26;19.90;99.90
11505;DHT22;5809;53.262;10.408;2022-10-22T10:07:55;19.80;99.90
11505;DHT22;5809;53.262;10.408;2022-10-22T10:10:32;19.70;99.90
11505;DHT22;5809;53.262;10.408;2022-10-22T10:13:11;19.60;99.90
11505;DHT22;5809;53.262;10.408;2022-10-22T10:15:49;19.40;99.90
11505;DHT22;5809;53.262;10.408;2022-10-22T10:18:27;19.20;99.90
11505;DHT22;5809;53.262;10.408;2022-10-22T10:21:06;19.10;99.90
11505;DHT22;5809;53.262;10.408;2022-10-22T10:23:43;19.10;99.90
11505;DHT22;5809;53.262;10.408;2022-10-22T10:26:14;19.00;99.90
11505;DHT22;5809;53.262;10.408;2022-10-22T10:28:54;19.00;99.90
11505;DHT22;5809;53.262;10.408;2022-10-22T10:31:33;19.00;99.90
11505;DHT22;5809;53.262;10.408;2022-10-22T10:34:11;19.20;99.90
11505;DHT22;5809;53.262;10.408;2022-10-22T10:36:50;19.50;99.90
11505;DHT22;5809;53.262;10.408;2022-10-22T10:39:25;20.00;99.90
11505;DHT22;5809;53.262;10.408;2022-10-22T10:42:02;21.00;99.90
11505;DHT22;5809;53.262;10.408;2022-10-22T10:44:44;22.50;99.90
11505;DHT22;5809;53.262;10.408;2022-10-22T10:50:16;24.00;99.90
11505;DHT22;5809;53.262;10.408;2022-10-22T10:52:49;24.40;99.90
11505;DHT22;5809;53.262;10.408;2022-10-22T10:55:21;24.50;99.90
11505;DHT22;5809;53.262;10.408;2022-10-22T10:57:58;25.10;99.90
11505;DHT22;5809;53.262;10.408;2022-10-22T11:00:32;25.10;99.90
11505;DHT22;5809;53.262;10.408;2022-10-22T11:06:08;25.50;99.90
11505;DHT22;5809;53.262;10.408;2022-10-22T11:08:39;26.30;99.90
11505;DHT22;5809;53.262;10.408;2022-10-22T11:11:14;26.30;99.90
11505;DHT22;5809;53.262;10.408;2022-10-22T11:13:46;26.30;99.90
11505;DHT22;5809;53.262;10.408;2022-10-22T11:16:19;26.60;99.90
11505;DHT22;5809;53.262;10.408;2022-10-22T11:18:51;26.10;99.90
11505;DHT22;5809;53.262;10.408;2022-10-22T11:21:26;26.00;99.90
11505;DHT22;5809;53.262;10.408;2022-10-22T11:24:00;26.10;99.90
11505;DHT22;5809;53.262;10.408;2022-10-22T11:26:36;26.50;99.90
11505;DHT22;5809;53.262;10.408;2022-10-22T11:29:08;26.30;99.90
11505;DHT22;5809;53.262;10.408;2022-10-22T11:31:37;26.30;99.90
11505;DHT22;5809;53.262;10.408;2022-10-22T11:34:13;26.30;99.90
11505;DHT22;5809;53.262;10.408;2022-10-22T11:36:41;26.90;99.90
11505;DHT22;5809;53.262;10.408;2022-10-22T11:39:30;27.80;99.10
11505;DHT22;5809;53.262;10.408;2022-10-22T11:42:03;28.10;99.30
11505;DHT22;5809;53.262;10.408;2022-10-22T11:44:30;28.50;96.80
11505;DHT22;5809;53.262;10.408;2022-10-22T11:47:17;27.80;96.80
11505;DHT22;5809;53.262;10.408;2022-10-22T11:49:53;27.90;97.00
11505;DHT22;5809;53.262;10.408;2022-10-22T11:52:24;27.80;97.80
11505;DHT22;5809;53.262;10.408;2022-10-22T11:54:53;24.40;95.40
11505;DHT22;5809;53.262;10.408;2022-10-22T11:57:28;28.60;94.70
11505;DHT22;5809;53.262;10.408;2022-10-22T11:59:58;27.10;95.40
11505;DHT22;5809;53.262;10.408;2022-10-22T12:02:43;26.00;99.90
11505;DHT22;5809;53.262;10.408;2022-10-22T12:05:28;26.10;99.90
11505;DHT22;5809;53.262;10.408;2022-10-22T12:08:01;25.60;99.90
11505;DHT22;5809;53.262;10.408;2022-10-22T12:10:34;25.70;99.90
11505;DHT22;5809;53.262;10.408;2022-10-22T12:13:10;26.40;99.90
11505;DHT22;5809;53.262;10.408;2022-10-22T12:15:46;26.40;99.90
11505;DHT22;5809;53.262;10.408;2022-10-22T12:18:15;26.50;99.90
11505;DHT22;5809;53.262;10.408;2022-10-22T12:20:42;27.00;99.90
11505;DHT22;5809;53.262;10.408;2022-10-22T12:23:10;27.60;98.40
11505;DHT22;5809;53.262;10.408;2022-10-22T12:25:38;27.60;97.30
11505;DHT22;5809;53.262;10.408;2022-10-22T12:28:10;27.60;97.30
11505;DHT22;5809;53.262;10.408;2022-10-22T12:30:38;26.90;98.60
11505;DHT22;5809;53.262;10.408;2022-10-22T12:33:07;26.80;98.80
11505;DHT22;5809;53.262;10.408;2022-10-22T12:35:44;25.50;99.90
11505;DHT22;5809;53.262;10.408;2022-10-22T12:38:13;24.30;99.90
11505;DHT22;5809;53.262;10.408;2022-10-22T12:43:13;22.50;99.90
11505;DHT22;5809;53.262;10.408;2022-10-22T12:45:42;21.60;99.90
11505;DHT22;5809;53.262;10.408;2022-10-22T12:48:15;21.00;99.90
11505;DHT22;5809;53.262;10.408;2022-10-22T12:50:45;20.60;99.90
11505;DHT22;5809;53.262;10.408;2022-10-22T12:53:16;20.20;99.90
11505;DHT22;5809;53.262;10.408;2022-10-22T12:55:45;20.00;99.90
11505;DHT22;5809;53.262;10.408;2022-10-22T13:00:45;20.10;99.90
11505;DHT22;5809;53.262;10.408;2022-10-22T13:03:27;20.50;99.90
11505;DHT22;5809;53.262;10.408;2022-10-22T13:05:55;20.70;99.90
11505;DHT22;5809;53.262;10.408;2022-10-22T13:08:26;21.00;99.90
11505;DHT22;5809;53.262;10.408;2022-10-22T13:10:53;21.30;99.90
11505;DHT22;5809;53.262;10.408;2022-10-22T13:13:41;21.10;99.90
11505;DHT22;5809;53.262;10.408;2022-10-22T13:16:15;20.60;99.90
11505;DHT22;5809;53.262;10.408;2022-10-22T13:18:43;20.40;99.90
11505;DHT22;5809;53.262;10.408;2022-10-22T13:21:21;21.00;99.90
11505;DHT22;5809;53.262;10.408;2022-10-22T13:23:52;22.20;99.90
11505;DHT22;5809;53.262;10.408;2022-10-22T13:28:53;23.10;99.90
11505;DHT22;5809;53.262;10.408;2022-10-22T13:31:23;23.40;99.90
11505;DHT22;5809;53.262;10.408;2022-10-22T13:33:54;24.40;99.90
11505;DHT22;5809;53.262;10.408;2022-10-22T13:36:22;24.90;99.90
11505;DHT22;5809;53.262;10.408;2022-10-22T13:38:50;24.60;99.90
11505;DHT22;5809;53.262;10.408;2022-10-22T13:41:21;23.90;99.90
11505;DHT22;5809;53.262;10.408;2022-10-22T13:43:50;23.20;99.90
11505;DHT22;5809;53.262;10.408;2022-10-22T13:46:18;22.60;99.90
11505;DHT22;5809;53.262;10.408;2022-10-22T13:48:47;22.60;99.90
11505;DHT22;5809;53.262;10.408;2022-10-22T13:51:18;23.40;99.90
11505;DHT22;5809;53.262;10.408;2022-10-22T13:53:46;23.80;99.90
11505;DHT22;5809;53.262;10.408;2022-10-22T13:56:15;23.50;99.90
11505;DHT22;5809;53.262;10.408;2022-10-22T14:01:17;22.60;99.90
11505;DHT22;5809;53.262;10.408;2022-10-22T14:03:46;21.70;99.90
11505;DHT22;5809;53.262;10.408;2022-10-22T14:06:15;21.00;99.90
11505;DHT22;5809;53.262;10.408;2022-10-22T14:08:45;21.00;99.90
11505;DHT22;5809;53.262;10.408;2022-10-22T14:11:13;21.30;99.90
11505;DHT22;5809;53.262;10.408;2022-10-22T14:13:40;22.10;99.90
11505;DHT22;5809;53.262;10.408;2022-10-22T14:16:15;22.80;99.90
11505;DHT22;5809;53.262;10.408;2022-10-22T14:18:43;23.20;99.90
11505;DHT22;5809;53.262;10.408;2022-10-22T14:21:12;23.10;99.90
11505;DHT22;5809;53.262;10.408;2022-10-22T14:23:40;23.60;99.90
11505;DHT22;5809;53.262;10.408;2022-10-22T14:26:14;24.00;99.90
11505;DHT22;5809;53.262;10.408;2022-10-22T14:28:43;24.20;99.90
11505;DHT22;5809;53.262;10.408;2022-10-22T14:31:10;24.30;99.90
11505;DHT22;5809;53.262;10.408;2022-10-22T14:33:39;23.40;99.90
11505;DHT22;5809;53.262;10.408;2022-10-22T14:36:07;22.40;99.90
11505;DHT22;5809;53.262;10.408;2022-10-22T14:38:34;22.00;99.90
11505;DHT22;5809;53.262;10.408;2022-10-22T14:41:01;21.80;99.90
11505;DHT22;5809;53.262;10.408;2022-10-22T14:43:29;21.30;99.90
11505;DHT22;5809;53.262;10.408;2022-10-22T14:48:23;20.10;99.90
11505;DHT22;5809;53.262;10.408;2022-10-22T14:50:53;19.90;99.90
11505;DHT22;5809;53.262;10.408;2022-10-22T14:55:47;20.60;99.90
11505;DHT22;5809;53.262;10.408;2022-10-22T15:03:10;19.80;99.90
11505;DHT22;5809;53.262;10.408;2022-10-22T15:05:39;18.10;99.90
11505;DHT22;5809;53.262;10.408;2022-10-22T15:08:09;20.10;99.90
11505;DHT22;5809;53.262;10.408;2022-10-22T15:13:03;21.20;99.90
11505;DHT22;5809;53.262;10.408;2022-10-22T15:20:25;19.60;99.90
11505;DHT22;5809;53.262;10.408;2022-10-22T15:22:53;19.20;99.90
11505;DHT22;5809;53.262;10.408;2022-10-22T15:25:21;18.70;99.90
11505;DHT22;5809;53.262;10.408;2022-10-22T15:27:48;18.50;99.90
11505;DHT22;5809;53.262;10.408;2022-10-22T15:30:15;18.30;99.90
11505;DHT22;5809;53.262;10.408;2022-10-22T15:32:42;18.10;99.90
11505;DHT22;5809;53.262;10.408;2022-10-22T15:35:09;17.90;99.90
11505;DHT22;5809;53.262;10.408;2022-10-22T15:37:36;17.70;99.90
11505;DHT22;5809;53.262;10.408;2022-10-22T15:40:04;17.70;99.90
11505;DHT22;5809;53.262;10.408;2022-10-22T15:42:33;17.60;99.90
11505;DHT22;5809;53.262;10.408;2022-10-22T15:45:00;17.40;99.90
11505;DHT22;5809;53.262;10.408;2022-10-22T15:47:27;17.40;99.90
11505;DHT22;5809;53.262;10.408;2022-10-22T15:49:56;17.30;99.90
11505;DHT22;5809;53.262;10.408;2022-10-22T15:54:50;17.30;99.90
11505;DHT22;5809;53.262;10.408;2022-10-22T15:57:17;17.20;99.90
11505;DHT22;5809;53.262;10.408;2022-10-22T15:59:45;17.20;99.90
11505;DHT22;5809;53.262;10.408;2022-10-22T16:02:14;17.20;99.90
11505;DHT22;5809;53.262;10.408;2022-10-22T16:04:41;17.10;99.90
11505;DHT22;5809;53.262;10.408;2022-10-22T16:07:08;17.00;99.90
11505;DHT22;5809;53.262;10.408;2022-10-22T16:12:02;16.50;99.90
11505;DHT22;5809;53.262;10.408;2022-10-22T16:14:29;16.40;99.90
11505;DHT22;5809;53.262;10.408;2022-10-22T16:16:57;16.40;99.90
11505;DHT22;5809;53.262;10.408;2022-10-22T16:19:26;16.40;99.90
11505;DHT22;5809;53.262;10.408;2022-10-22T16:21:54;16.50;99.90
11505;DHT22;5809;53.262;10.408;2022-10-22T16:24:23;16.50;99.90
11505;DHT22;5809;53.262;10.408;2022-10-22T16:26:50;16.50;99.90
11505;DHT22;5809;53.262;10.408;2022-10-22T16:29:18;16.50;99.90
11505;DHT22;5809;53.262;10.408;2022-10-22T16:31:44;16.50;99.90
11505;DHT22;5809;53.262;10.408;2022-10-22T16:34:13;16.50;99.90
11505;DHT22;5809;53.262;10.408;2022-10-22T16:36:40;16.50;99.90
11505;DHT22;5809;53.262;10.408;2022-10-22T16:39:07;16.50;99.90
11505;DHT22;5809;53.262;10.408;2022-10-22T16:41:34;16.40;99.90
11505;DHT22;5809;53.262;10.408;2022-10-22T16:44:03;16.50;99.90
11505;DHT22;5809;53.262;10.408;2022-10-22T16:46:30;16.40;99.90
11505;DHT22;5809;53.262;10.408;2022-10-22T16:48:58;16.50;99.90
11505;DHT22;5809;53.262;10.408;2022-10-22T16:51:27;16.50;99.90
11505;DHT22;5809;53.262;10.408;2022-10-22T16:53:55;16.40;99.90
11505;DHT22;5809;53.262;10.408;2022-10-22T16:56:23;16.40;99.90
11505;DHT22;5809;53.262;10.408;2022-10-22T16:58:52;16.40;99.90
11505;DHT22;5809;53.262;10.408;2022-10-22T17:01:22;16.40;99.90
11505;DHT22;5809;53.262;10.408;2022-10-22T17:03:50;16.40;99.90
11505;DHT22;5809;53.262;10.408;2022-10-22T17:06:19;16.20;99.90
11505;DHT22;5809;53.262;10.408;2022-10-22T17:08:47;15.80;99.90
11505;DHT22;5809;53.262;10.408;2022-10-22T17:11:16;16.80;99.90
11505;DHT22;5809;53.262;10.408;2022-10-22T17:13:45;15.30;99.90
11505;DHT22;5809;53.262;10.408;2022-10-22T17:16:14;15.10;99.90
11505;DHT22;5809;53.262;10.408;2022-10-22T17:18:43;14.90;99.90
11505;DHT22;5809;53.262;10.408;2022-10-22T17:21:11;14.80;99.90
11505;DHT22;5809;53.262;10.408;2022-10-22T17:26:13;14.60;99.90
11505;DHT22;5809;53.262;10.408;2022-10-22T17:28:40;14.60;99.90
11505;DHT22;5809;53.262;10.408;2022-10-22T17:31:09;14.60;99.90
11505;DHT22;5809;53.262;10.408;2022-10-22T17:33:36;14.60;99.90
11505;DHT22;5809;53.262;10.408;2022-10-22T17:36:05;14.50;99.90
11505;DHT22;5809;53.262;10.408;2022-10-22T17:38:37;14.50;99.90
11505;DHT22;5809;53.262;10.408;2022-10-22T17:41:05;14.50;99.90
11505;DHT22;5809;53.262;10.408;2022-10-22T17:43:34;14.50;99.90
11505;DHT22;5809;53.262;10.408;2022-10-22T17:46:05;14.40;99.90
11505;DHT22;5809;53.262;10.408;2022-10-22T17:50:59;14.50;99.90
11505;DHT22;5809;53.262;10.408;2022-10-22T17:53:26;14.50;99.90
11505;DHT22;5809;53.262;10.408;2022-10-22T17:56:00;14.50;99.90
11505;DHT22;5809;53.262;10.408;2022-10-22T17:58:29;14.40;99.90
11505;DHT22;5809;53.262;10.408;2022-10-22T18:00:57;14.40;99.90
11505;DHT22;5809;53.262;10.408;2022-10-22T18:03:24;14.40;99.90
11505;DHT22;5809;53.262;10.408;2022-10-22T18:10:48;14.40;99.90
11505;DHT22;5809;53.262;10.408;2022-10-22T18:13:15;14.40;99.90
11505;DHT22;5809;53.262;10.408;2022-10-22T18:15:42;14.40;99.90